Norwegian Sun — C6RN3 — position and weather

sailwx.info

Track history (hours):
 
Tides and Currents Weather Stations Pressure Air Temp Water Temp Dewpoint Dewpoint Depression Visibility Wind Speed Wind Dir Waves Ship Positions

Norwegian Sun

Operator: Norwegian Cruise Line

Last reported at 2019-Oct-16 12:00 UTC. Time now 2019-Oct-17 17:52 UTC.
Position N 27°00' W 079°30'.

Type: Passenger vessel. MMSI: 311109000.

Wind from 200 at 13 knots

Barometer 1019.6 mb
Air temperature 25.0 ° C
Visibility: greater than 10.8 NM
Dewpoint 22.0 ° C
Water temperature 26.0 ° C

Date/timePositionNaut miles runAvg speedWind from/ knotsBaromVisibWave heightAir tempDewpointWater temp
2019-Oct-16 12:00N 27°00' W 079°30'36 6.1 200 / 131019.610.8 25.022.026.0
2019-Oct-16 06:03N 26°24' W 079°26'1 6.3
2019-Oct-16 05:57N 26°23' W 079°26'4 8.8
2019-Oct-16 05:30N 26°20' W 079°24'611.7
2019-Oct-16 05:00N 26°18' W 079°18'6911.5
2019-Oct-15 23:00N 25°54' W 078°06'   090 / 121020.610.8 28.025.229.0
2019-Oct-12 04:41N 27°09' W 079°50'317.8
2019-Oct-12 04:30N 27°06' W 079°49'918.0
2019-Oct-12 04:00N 26°58' W 079°47'1920.3
2019-Oct-12 03:05N 26°39' W 079°46'220.2
2019-Oct-12 03:00N 26°37' W 079°46'1020.1
2019-Oct-12 02:30N 26°27' W 079°46'1020.0
2019-Oct-12 02:01N 26°17' W 079°47'1019.8
2019-Oct-12 01:30N 26°07' W 079°48'1019.7
2019-Oct-12 01:00N 25°57' W 079°49'1019.9
2019-Oct-12 00:31N 25°48' W 079°51'1020.2
2019-Oct-12 00:01N 25°38' W 079°52'1020.4
2019-Oct-11 23:30N 25°28' W 079°55'1020.4
2019-Oct-11 23:00N 25°18' W 079°58'1020.5
2019-Oct-11 22:30N 25°08' W 080°02'3 5.4
2019-Oct-11 22:00N 25°06' W 080°00'43519.8 090 / 201017.610.8 28.025.229.0
2019-Oct-11 00:00N 21°00' W 086°30'1822.7 090 / 241016.610.8 28.025.229.0
2019-Oct-10 23:12N 20°49' W 086°45'420.6
2019-Oct-10 23:00N 20°46' W 086°48'1020.6
2019-Oct-10 22:31N 20°38' W 086°54'714.7
2019-Oct-10 22:00N 20°31' W 086°57'0 0.3
2019-Oct-10 21:28N 20°31' W 086°57'0 0.0
2019-Oct-10 20:58N 20°31' W 086°57'0 0.0
2019-Oct-10 20:28N 20°31' W 086°57'0 0.0
2019-Oct-10 19:58N 20°31' W 086°57'0 0.0
2019-Oct-10 19:28N 20°31' W 086°57'0 0.0
2019-Oct-10 18:58N 20°31' W 086°57'0 0.0
2019-Oct-10 18:25N 20°31' W 086°57'0 0.0
2019-Oct-10 17:58N 20°31' W 086°57'0 0.0
2019-Oct-10 17:25N 20°31' W 086°57'0 0.0
2019-Oct-10 16:58N 20°31' W 086°57'0 0.0
2019-Oct-10 16:28N 20°31' W 086°57'0 0.0
2019-Oct-10 15:55N 20°31' W 086°57'0 0.0
2019-Oct-10 15:28N 20°31' W 086°57'0 0.0
2019-Oct-10 14:58N 20°31' W 086°57'0 0.0
2019-Oct-10 14:28N 20°31' W 086°57'0 0.0
2019-Oct-10 13:58N 20°31' W 086°57'0 0.0
2019-Oct-10 13:28N 20°31' W 086°57'0 0.0
2019-Oct-10 12:58N 20°31' W 086°57'0 0.0
2019-Oct-10 12:30N 20°31' W 086°57'1 2.7
2019-Oct-10 12:00N 20°30' W 086°58'4 8.5
2019-Oct-10 11:30N 20°27' W 087°02'5 9.1
2019-Oct-10 11:00N 20°23' W 087°05'5 9.1
2019-Oct-10 10:30N 20°19' W 087°06'4 9.1
2019-Oct-10 10:00N 20°15' W 087°06'134 3.2
2019-Oct-08 16:00N 21°48' W 085°24'8213.6 180 / 181017.610.8 30.022.827.0
2019-Oct-08 10:00N 22°48' W 084°24'277 9.0 200 / 301015.6 5.4 25.023.526.0
2019-Oct-07 03:03N 25°08' W 080°02'114.7
2019-Oct-07 02:58N 25°09' W 080°01'1414.4
2019-Oct-07 02:00N 25°20' W 079°53'714.4
2019-Oct-07 01:30N 25°26' W 079°48'815.8
2019-Oct-07 01:01N 25°33' W 079°45'917.4
2019-Oct-07 00:30N 25°41' W 079°40'917.8
2019-Oct-07 00:00N 25°48' W 079°35'918.6
2019-Oct-06 23:30N 25°57' W 079°30'1019.5
2019-Oct-06 23:00N 26°04' W 079°23'1020.6
2019-Oct-06 22:30N 26°10' W 079°14'  
Track history (hours):
 
Tides and Currents Weather Stations Pressure Air Temp Water Temp Dewpoint Dewpoint Depression Visibility Wind Speed Wind Dir Waves Ship Positions

Norwegian Sun

Operator: Norwegian Cruise Line

Last reported at 2019-Oct-16 12:00 UTC. Time now 2019-Oct-17 17:52 UTC.
Position N 27°00' W 079°30'.

Type: Passenger vessel. MMSI: 311109000.

Wind from 200 at 13 knots

Barometer 1019.6 mb
Air temperature 25.0 ° C
Visibility: greater than 10.8 NM
Dewpoint 22.0 ° C
Water temperature 26.0 ° C

Date/timePositionNaut miles runAvg speedWind from/ knotsBaromVisibWave heightAir tempDewpointWater temp
2019-Oct-16 12:00N 27°00' W 079°30'36 6.1 200 / 131019.610.8 25.022.026.0
2019-Oct-16 06:03N 26°24' W 079°26'1 6.3
2019-Oct-16 05:57N 26°23' W 079°26'4 8.8
2019-Oct-16 05:30N 26°20' W 079°24'611.7
2019-Oct-16 05:00N 26°18' W 079°18'6911.5
2019-Oct-15 23:00N 25°54' W 078°06'   090 / 121020.610.8 28.025.229.0
2019-Oct-12 04:41N 27°09' W 079°50'317.8
2019-Oct-12 04:30N 27°06' W 079°49'918.0
2019-Oct-12 04:00N 26°58' W 079°47'1920.3
2019-Oct-12 03:05N 26°39' W 079°46'220.2
2019-Oct-12 03:00N 26°37' W 079°46'1020.1
2019-Oct-12 02:30N 26°27' W 079°46'1020.0
2019-Oct-12 02:01N 26°17' W 079°47'1019.8
2019-Oct-12 01:30N 26°07' W 079°48'1019.7
2019-Oct-12 01:00N 25°57' W 079°49'1019.9
2019-Oct-12 00:31N 25°48' W 079°51'1020.2
2019-Oct-12 00:01N 25°38' W 079°52'1020.4
2019-Oct-11 23:30N 25°28' W 079°55'1020.4
2019-Oct-11 23:00N 25°18' W 079°58'1020.5
2019-Oct-11 22:30N 25°08' W 080°02'3 5.4
2019-Oct-11 22:00N 25°06' W 080°00'43519.8 090 / 201017.610.8 28.025.229.0
2019-Oct-11 00:00N 21°00' W 086°30'1822.7 090 / 241016.610.8 28.025.229.0
2019-Oct-10 23:12N 20°49' W 086°45'420.6
2019-Oct-10 23:00N 20°46' W 086°48'1020.6
2019-Oct-10 22:31N 20°38' W 086°54'714.7
2019-Oct-10 22:00N 20°31' W 086°57'0 0.3
2019-Oct-10 21:28N 20°31' W 086°57'0 0.0
2019-Oct-10 20:58N 20°31' W 086°57'0 0.0
2019-Oct-10 20:28N 20°31' W 086°57'0 0.0
2019-Oct-10 19:58N 20°31' W 086°57'0 0.0
2019-Oct-10 19:28N 20°31' W 086°57'0 0.0
2019-Oct-10 18:58N 20°31' W 086°57'0 0.0
2019-Oct-10 18:25N 20°31' W 086°57'0 0.0
2019-Oct-10 17:58N 20°31' W 086°57'0 0.0
2019-Oct-10 17:25N 20°31' W 086°57'0 0.0
2019-Oct-10 16:58N 20°31' W 086°57'0 0.0
2019-Oct-10 16:28N 20°31' W 086°57'0 0.0
2019-Oct-10 15:55N 20°31' W 086°57'0 0.0
2019-Oct-10 15:28N 20°31' W 086°57'0 0.0
2019-Oct-10 14:58N 20°31' W 086°57'0 0.0
2019-Oct-10 14:28N 20°31' W 086°57'0 0.0
2019-Oct-10 13:58N 20°31' W 086°57'0 0.0
2019-Oct-10 13:28N 20°31' W 086°57'0 0.0
2019-Oct-10 12:58N 20°31' W 086°57'0 0.0
2019-Oct-10 12:30N 20°31' W 086°57'1 2.7
2019-Oct-10 12:00N 20°30' W 086°58'4 8.5
2019-Oct-10 11:30N 20°27' W 087°02'5 9.1
2019-Oct-10 11:00N 20°23' W 087°05'5 9.1
2019-Oct-10 10:30N 20°19' W 087°06'4 9.1
2019-Oct-10 10:00N 20°15' W 087°06'134 3.2
2019-Oct-08 16:00N 21°48' W 085°24'8213.6 180 / 181017.610.8 30.022.827.0
2019-Oct-08 10:00N 22°48' W 084°24'277 9.0 200 / 301015.6 5.4 25.023.526.0
2019-Oct-07 03:03N 25°08' W 080°02'114.7
2019-Oct-07 02:58N 25°09' W 080°01'1414.4
2019-Oct-07 02:00N 25°20' W 079°53'714.4
2019-Oct-07 01:30N 25°26' W 079°48'815.8
2019-Oct-07 01:01N 25°33' W 079°45'917.4
2019-Oct-07 00:30N 25°41' W 079°40'917.8
2019-Oct-07 00:00N 25°48' W 079°35'918.6
2019-Oct-06 23:30N 25°57' W 079°30'1019.5
2019-Oct-06 23:00N 26°04' W 079°23'1020.6
2019-Oct-06 22:30N 26°10' W 079°14'  

Dump ship's entire track history